createdAt,value
2018-12-19T00:01:26.630Z,24.72
2018-12-19T00:03:54.033Z,27.70
2018-12-19T00:06:21.444Z,27.35
2018-12-19T00:08:49.759Z,26.75
2018-12-19T00:11:17.200Z,26.40
2018-12-19T00:13:44.610Z,27.82
2018-12-19T00:16:12.022Z,25.68
2018-12-19T00:18:39.490Z,25.92
2018-12-19T00:21:06.905Z,27.60
2018-12-19T00:23:34.300Z,26.15
2018-12-19T00:26:01.752Z,25.30
2018-12-19T00:28:29.166Z,23.90
2018-12-19T00:30:56.563Z,21.73
2018-12-19T00:33:23.980Z,23.45
2018-12-19T00:35:52.388Z,22.48
2018-12-19T00:38:19.803Z,22.00
2018-12-19T00:40:47.224Z,25.35
2018-12-19T00:43:14.604Z,25.23
2018-12-19T00:45:42.012Z,23.90
2018-12-19T00:48:09.460Z,23.70
2018-12-19T00:50:36.891Z,22.87
2018-12-19T00:53:04.281Z,22.90
2018-12-19T00:55:31.745Z,20.65
2018-12-19T00:57:59.144Z,20.68
2018-12-19T01:00:26.576Z,18.75
2018-12-19T01:02:54.104Z,20.12
2018-12-19T01:05:21.488Z,18.80
2018-12-19T01:07:48.886Z,18.80
2018-12-19T01:10:16.302Z,17.10
2018-12-19T01:12:43.701Z,17.55
2018-12-19T01:15:11.121Z,17.35
2018-12-19T01:17:38.529Z,17.32
2018-12-19T01:20:05.974Z,17.75
2018-12-19T01:22:33.402Z,17.67
2018-12-19T01:25:00.797Z,20.62
2018-12-19T01:27:28.205Z,21.15
2018-12-19T01:29:55.608Z,20.85
2018-12-19T01:32:23.027Z,21.50
2018-12-19T01:34:50.420Z,19.82
2018-12-19T01:37:18.076Z,19.15
2018-12-19T01:39:45.488Z,18.32
2018-12-19T01:42:12.889Z,17.65
2018-12-19T01:44:40.292Z,18.10
2018-12-19T01:47:07.749Z,17.70
2018-12-19T01:49:35.257Z,18.37
2018-12-19T01:52:02.664Z,19.00
2018-12-19T01:54:30.066Z,19.40
2018-12-19T01:56:57.469Z,17.92
2018-12-19T01:59:24.868Z,16.73
2018-12-19T02:01:52.288Z,18.92
2018-12-19T02:04:19.690Z,18.37
2018-12-19T02:06:47.084Z,18.92
2018-12-19T02:09:14.847Z,18.45
2018-12-19T02:11:42.248Z,17.40
2018-12-19T02:14:09.659Z,17.90
2018-12-19T02:16:37.063Z,17.05
2018-12-19T02:19:04.528Z,18.52
2018-12-19T02:21:31.942Z,18.40
2018-12-19T02:23:59.693Z,17.67
2018-12-19T02:26:27.108Z,18.37
2018-12-19T02:28:54.570Z,19.98
2018-12-19T02:31:21.974Z,19.35
2018-12-19T02:33:49.479Z,16.65
2018-12-19T02:36:16.888Z,17.60
2018-12-19T02:38:44.297Z,19.05
2018-12-19T02:41:11.697Z,18.48
2018-12-19T02:43:39.107Z,19.65
2018-12-19T02:46:06.504Z,20.43
2018-12-19T02:48:33.912Z,19.32
2018-12-19T02:51:01.329Z,21.30
2018-12-19T02:53:28.808Z,21.85
2018-12-19T02:55:56.221Z,20.90
2018-12-19T02:58:23.616Z,22.48
2018-12-19T03:00:51.030Z,23.15
2018-12-19T03:03:18.439Z,23.95
2018-12-19T03:05:45.839Z,21.93
2018-12-19T03:08:13.309Z,22.70
2018-12-19T03:10:40.793Z,23.87
2018-12-19T03:13:08.283Z,24.18
2018-12-19T03:15:35.796Z,23.47
2018-12-19T03:18:03.252Z,23.83
2018-12-19T03:20:30.657Z,24.50
2018-12-19T03:22:58.065Z,24.37
2018-12-19T03:25:25.484Z,24.35
2018-12-19T03:27:52.890Z,26.35
2018-12-19T03:30:20.295Z,25.80
2018-12-19T03:32:47.698Z,24.80
2018-12-19T03:35:15.117Z,23.70
2018-12-19T03:37:42.523Z,23.77
2018-12-19T03:40:10.035Z,24.05
2018-12-19T03:42:37.531Z,22.55
2018-12-19T03:45:06.153Z,22.37
2018-12-19T03:47:33.564Z,22.17
2018-12-19T03:50:01.156Z,23.18
2018-12-19T03:52:28.548Z,20.08
2018-12-19T03:54:55.953Z,21.27
2018-12-19T03:57:23.591Z,19.00
2018-12-19T03:59:51.000Z,18.00
2018-12-19T04:02:18.455Z,17.48
2018-12-19T04:04:45.854Z,19.52
2018-12-19T04:07:13.279Z,17.20
2018-12-19T04:09:40.681Z,18.75
2018-12-19T04:12:08.106Z,19.62
2018-12-19T04:14:35.569Z,18.45
2018-12-19T04:17:02.984Z,18.73
2018-12-19T04:19:30.408Z,18.00
2018-12-19T04:21:57.949Z,18.75
2018-12-19T04:24:25.365Z,17.65
2018-12-19T04:26:52.767Z,18.42
2018-12-19T04:29:20.251Z,20.70
2018-12-19T04:31:47.676Z,19.60
2018-12-19T04:34:15.140Z,21.60
2018-12-19T04:36:42.529Z,20.00
2018-12-19T04:39:09.996Z,20.45
2018-12-19T04:41:37.404Z,19.80
2018-12-19T04:44:04.802Z,19.30
2018-12-19T04:46:32.218Z,17.50
2018-12-19T04:48:59.612Z,19.50
2018-12-19T04:51:27.021Z,20.23
2018-12-19T04:53:54.433Z,17.82
2018-12-19T04:56:21.847Z,19.50
2018-12-19T04:58:49.250Z,19.92
2018-12-19T05:01:16.752Z,19.17
2018-12-19T05:03:44.149Z,19.42
2018-12-19T05:06:11.549Z,18.55
2018-12-19T05:08:38.949Z,17.82
2018-12-19T05:11:06.359Z,18.52
2018-12-19T05:13:33.857Z,17.80
2018-12-19T05:16:01.269Z,18.92
2018-12-19T05:18:28.666Z,18.25
2018-12-19T05:20:56.061Z,19.80
2018-12-19T05:23:23.469Z,19.10
2018-12-19T05:25:50.861Z,20.60
2018-12-19T05:28:18.277Z,19.77
2018-12-19T05:30:45.668Z,18.00
2018-12-19T05:33:13.082Z,18.90
2018-12-19T05:35:40.472Z,19.02
2018-12-19T05:38:07.870Z,18.87
2018-12-19T05:40:35.277Z,19.73
2018-12-19T05:43:02.668Z,20.27
2018-12-19T05:45:30.068Z,18.75
2018-12-19T05:47:57.465Z,19.48
2018-12-19T05:50:25.207Z,20.00
2018-12-19T05:52:52.600Z,19.52
2018-12-19T05:55:19.997Z,18.52
2018-12-19T05:57:47.396Z,19.85
2018-12-19T06:00:14.788Z,18.57
2018-12-19T06:02:42.198Z,18.85
2018-12-19T06:05:09.680Z,17.17
2018-12-19T06:07:37.064Z,16.23
2018-12-19T06:10:04.871Z,18.20
2018-12-19T06:12:32.270Z,16.20
2018-12-19T06:14:59.669Z,18.05
2018-12-19T06:17:27.061Z,16.55
2018-12-19T06:19:54.466Z,16.93
2018-12-19T06:22:21.856Z,17.52
2018-12-19T06:24:49.282Z,17.25
2018-12-19T06:27:16.740Z,18.12
2018-12-19T06:29:44.156Z,18.60
2018-12-19T06:32:11.561Z,18.50
2018-12-19T06:34:38.975Z,16.73
2018-12-19T06:37:06.493Z,17.98
2018-12-19T06:39:33.926Z,18.80
2018-12-19T06:42:01.304Z,18.50
2018-12-19T06:44:28.709Z,19.27
2018-12-19T06:46:56.112Z,20.10
2018-12-19T06:49:23.504Z,20.77
2018-12-19T06:51:50.980Z,20.50
2018-12-19T06:54:18.432Z,19.82
2018-12-19T06:56:45.844Z,18.50
2018-12-19T06:59:13.244Z,21.95
2018-12-19T07:01:40.660Z,21.57
2018-12-19T07:04:08.058Z,21.68
2018-12-19T07:06:35.456Z,22.10
2018-12-19T07:09:03.477Z,23.22
2018-12-19T07:11:30.915Z,23.57
2018-12-19T07:13:58.312Z,22.62
2018-12-19T07:16:25.716Z,23.10
2018-12-19T07:18:53.112Z,23.62
2018-12-19T07:21:20.512Z,24.32
2018-12-19T07:23:47.921Z,22.10
2018-12-19T07:26:15.315Z,24.40
2018-12-19T07:28:42.815Z,25.27
2018-12-19T07:31:10.200Z,24.23
2018-12-19T07:33:37.592Z,26.75
2018-12-19T07:36:05.036Z,23.22
2018-12-19T07:38:32.451Z,26.05
2018-12-19T07:40:59.993Z,23.20
2018-12-19T07:43:27.449Z,23.40
2018-12-19T07:45:54.834Z,25.25
2018-12-19T07:48:22.274Z,27.07
2018-12-19T07:50:49.668Z,23.83
2018-12-19T07:53:17.073Z,23.25
2018-12-19T07:55:44.816Z,25.90
2018-12-19T07:58:12.220Z,23.87
2018-12-19T08:00:39.634Z,23.50
2018-12-19T08:03:07.080Z,23.42
2018-12-19T08:05:34.488Z,23.35
2018-12-19T08:08:01.884Z,24.07
2018-12-19T08:10:29.282Z,22.52
2018-12-19T08:12:56.732Z,22.37
2018-12-19T08:15:24.130Z,23.73
2018-12-19T08:17:51.525Z,22.15
2018-12-19T08:20:18.924Z,24.45
2018-12-19T08:22:46.333Z,23.32
2018-12-19T08:25:13.742Z,23.30
2018-12-19T08:27:41.188Z,24.82
2018-12-19T08:30:09.493Z,23.77
2018-12-19T08:32:36.963Z,24.10
2018-12-19T08:35:05.696Z,23.12
2018-12-19T08:37:33.101Z,27.37
2018-12-19T08:40:00.500Z,23.57
2018-12-19T08:42:27.892Z,25.05
2018-12-19T08:44:55.291Z,23.83
2018-12-19T08:47:22.700Z,25.55
2018-12-19T08:49:50.093Z,25.90
2018-12-19T08:52:17.540Z,26.17
2018-12-19T08:54:44.960Z,24.98
2018-12-19T08:57:12.355Z,25.92
2018-12-19T08:59:39.750Z,25.68
2018-12-19T09:02:07.150Z,27.27
2018-12-19T09:04:34.571Z,26.52
2018-12-19T09:07:01.964Z,28.60
2018-12-19T09:09:29.372Z,29.72
2018-12-19T09:11:56.776Z,27.10
2018-12-19T09:14:24.185Z,28.65
2018-12-19T09:16:51.576Z,28.02
2018-12-19T09:19:19.819Z,28.12
2018-12-19T09:21:47.205Z,29.65
2018-12-19T09:24:14.601Z,26.23
2018-12-19T09:26:42.005Z,28.02
2018-12-19T09:29:09.445Z,28.07
2018-12-19T09:31:36.836Z,27.25
2018-12-19T09:34:04.299Z,25.40
2018-12-19T09:36:31.692Z,27.32
2018-12-19T09:38:59.084Z,28.45
2018-12-19T09:41:26.494Z,28.12
2018-12-19T09:43:53.893Z,28.23
2018-12-19T09:46:21.295Z,24.80
2018-12-19T09:48:48.704Z,26.85
2018-12-19T09:51:16.144Z,25.95
2018-12-19T09:53:43.592Z,27.50
2018-12-19T09:56:10.988Z,26.97
2018-12-19T09:58:38.384Z,27.07
2018-12-19T10:01:05.978Z,27.40
2018-12-19T10:03:34.172Z,28.42
2018-12-19T10:06:01.624Z,26.65
2018-12-19T10:08:29.031Z,25.10
2018-12-19T10:10:56.423Z,25.88
2018-12-19T10:13:23.825Z,27.40
2018-12-19T10:15:51.236Z,26.35
2018-12-19T10:18:18.633Z,27.22
2018-12-19T10:20:46.038Z,27.52
2018-12-19T10:23:13.464Z,26.42
2018-12-19T10:25:40.849Z,26.33
2018-12-19T10:28:08.238Z,28.35
2018-12-19T10:30:37.584Z,27.10
2018-12-19T10:33:04.992Z,27.00
2018-12-19T10:35:32.394Z,29.15
2018-12-19T10:37:59.783Z,29.50
2018-12-19T10:40:27.188Z,26.77
2018-12-19T10:42:54.640Z,28.80
2018-12-19T10:45:22.052Z,28.73
2018-12-19T10:47:49.452Z,26.82
2018-12-19T10:50:16.862Z,27.00
2018-12-19T10:52:44.264Z,27.22
2018-12-19T10:55:11.657Z,28.20
2018-12-19T10:57:39.075Z,31.30
2018-12-19T11:00:10.212Z,29.87
2018-12-19T11:02:37.725Z,29.60
2018-12-19T11:05:05.309Z,32.08
2018-12-19T11:07:32.712Z,29.65
2018-12-19T11:10:00.112Z,31.30
2018-12-19T11:12:27.524Z,30.05
2018-12-19T11:14:54.925Z,29.82
2018-12-19T11:17:22.325Z,29.67
2018-12-19T11:19:49.736Z,27.20
2018-12-19T11:22:17.135Z,30.60
2018-12-19T11:24:44.539Z,29.07
2018-12-19T11:27:12.065Z,29.42
2018-12-19T11:29:39.552Z,29.67
2018-12-19T11:32:06.964Z,30.60
2018-12-19T11:34:34.363Z,29.55
2018-12-19T11:37:01.782Z,30.02
2018-12-19T11:39:29.202Z,31.07
2018-12-19T11:41:56.678Z,30.00
2018-12-19T11:44:24.260Z,29.52
2018-12-19T11:46:51.669Z,29.27
2018-12-19T11:49:19.082Z,30.37
2018-12-19T11:51:46.499Z,31.05
2018-12-19T11:54:13.915Z,30.65
2018-12-19T11:56:41.320Z,31.97
2018-12-19T11:59:08.730Z,32.98
2018-12-19T12:01:41.392Z,30.15
2018-12-19T12:04:05.556Z,28.60
2018-12-19T12:06:33.020Z,27.25
2018-12-19T12:09:00.439Z,29.00
2018-12-19T12:11:27.933Z,30.40
2018-12-19T12:13:55.334Z,31.48
2018-12-19T12:16:22.753Z,30.40
2018-12-19T12:18:50.169Z,29.70
2018-12-19T12:21:18.579Z,31.37
2018-12-19T12:23:47.385Z,31.35
2018-12-19T12:26:14.943Z,31.25
2018-12-19T12:28:42.352Z,31.52
2018-12-19T12:31:09.782Z,30.77
2018-12-19T12:33:37.196Z,30.85
2018-12-19T12:36:04.811Z,33.23
2018-12-19T12:38:34.224Z,32.20
2018-12-19T12:41:01.613Z,32.33
2018-12-19T12:43:29.042Z,31.95
2018-12-19T12:45:56.444Z,32.58
2018-12-19T12:48:23.857Z,30.97
2018-12-19T12:50:51.281Z,32.88
2018-12-19T12:53:19.617Z,32.90
2018-12-19T12:55:47.091Z,34.58
2018-12-19T12:58:14.498Z,32.83
2018-12-19T13:00:41.900Z,32.45
2018-12-19T13:03:09.308Z,33.53
2018-12-19T13:05:36.721Z,35.65
2018-12-19T13:08:04.155Z,34.23
2018-12-19T13:10:36.305Z,34.18
2018-12-19T13:13:01.017Z,33.63
2018-12-19T13:15:34.028Z,35.70
2018-12-19T13:18:01.872Z,32.08
2018-12-19T13:20:29.264Z,31.00
2018-12-19T13:22:56.690Z,32.38
2018-12-19T13:25:24.182Z,32.85
2018-12-19T13:27:51.861Z,33.20
2018-12-19T13:30:19.299Z,32.03
2018-12-19T13:32:46.709Z,34.55
2018-12-19T13:35:14.184Z,33.65
2018-12-19T13:37:41.781Z,33.73
2018-12-19T13:40:09.328Z,31.73
2018-12-19T13:42:36.744Z,34.20
2018-12-19T13:45:05.567Z,33.53
2018-12-19T13:47:33.088Z,32.73
2018-12-19T13:50:00.508Z,31.37
2018-12-19T13:52:27.927Z,31.75
2018-12-19T13:54:55.343Z,33.73
2018-12-19T13:57:22.765Z,31.75
2018-12-19T13:59:50.176Z,34.30
2018-12-19T14:02:17.589Z,33.00
2018-12-19T14:04:45.569Z,33.83
2018-12-19T14:07:13.086Z,31.70
2018-12-19T14:09:40.502Z,32.10
2018-12-19T14:12:12.322Z,32.53
2018-12-19T14:14:37.343Z,32.38
2018-12-19T14:17:04.841Z,31.73
2018-12-19T14:19:32.256Z,30.17
2018-12-19T14:21:59.665Z,29.10
2018-12-19T14:24:27.075Z,31.60
2018-12-19T14:26:54.492Z,34.00
2018-12-19T14:29:21.920Z,30.97
2018-12-19T14:31:49.316Z,32.17
2018-12-19T14:34:16.733Z,30.57
2018-12-19T14:36:44.184Z,34.95
2018-12-19T14:39:11.682Z,34.13
2018-12-19T14:41:39.094Z,37.05
2018-12-19T14:44:06.592Z,36.98
2018-12-19T14:46:34.001Z,36.53
2018-12-19T14:49:01.483Z,38.98
2018-12-19T14:51:28.896Z,33.85
2018-12-19T14:53:56.307Z,36.00
2018-12-19T14:56:23.765Z,34.97
2018-12-19T14:58:51.184Z,32.45
2018-12-19T15:01:19.571Z,31.02
2018-12-19T15:03:47.004Z,30.20
2018-12-19T15:06:14.416Z,31.10
2018-12-19T15:08:41.885Z,28.25
2018-12-19T15:11:09.290Z,29.23
2018-12-19T15:13:36.697Z,29.82
2018-12-19T15:16:04.164Z,30.77
2018-12-19T15:18:31.685Z,29.75
2018-12-19T15:20:59.121Z,28.77
2018-12-19T15:23:26.533Z,28.15
2018-12-19T15:25:53.993Z,30.35
2018-12-19T15:28:21.415Z,33.60
2018-12-19T15:30:48.828Z,33.18
2018-12-19T15:33:16.226Z,34.88
2018-12-19T15:35:43.657Z,35.00
2018-12-19T15:38:11.065Z,35.83
2018-12-19T15:40:38.472Z,33.15
2018-12-19T15:43:06.868Z,31.52
2018-12-19T15:45:34.338Z,29.65
2018-12-19T15:48:01.746Z,30.80
2018-12-19T15:50:29.170Z,29.40
2018-12-19T15:52:56.581Z,27.15
2018-12-19T15:55:23.990Z,28.12
2018-12-19T15:57:51.406Z,28.87
2018-12-19T16:00:18.865Z,27.48
2018-12-19T16:02:47.169Z,28.40
2018-12-19T16:05:14.600Z,30.37
2018-12-19T16:07:42.009Z,28.85
2018-12-19T16:10:09.516Z,28.53
2018-12-19T16:12:39.364Z,28.52
2018-12-19T16:15:06.969Z,28.90
2018-12-19T16:17:34.434Z,27.90
2018-12-19T16:20:01.852Z,28.13
2018-12-19T16:22:29.310Z,27.40
2018-12-19T16:24:56.718Z,26.27
2018-12-19T16:27:24.185Z,26.60
2018-12-19T16:29:52.528Z,27.02
2018-12-19T16:32:19.941Z,26.12
2018-12-19T16:34:47.376Z,26.05
2018-12-19T16:37:14.925Z,26.90
2018-12-19T16:39:42.329Z,27.22
2018-12-19T16:42:09.756Z,29.37
2018-12-19T16:44:37.269Z,27.42
2018-12-19T16:47:04.672Z,26.17
2018-12-19T16:49:32.148Z,27.30
2018-12-19T16:51:59.566Z,27.77
2018-12-19T16:54:26.967Z,27.77
2018-12-19T16:56:54.391Z,25.90
2018-12-19T16:59:21.856Z,26.57
2018-12-19T17:01:49.364Z,26.73
2018-12-19T17:04:16.858Z,30.25
2018-12-19T17:06:44.293Z,30.10
2018-12-19T17:09:11.797Z,30.50
2018-12-19T17:11:39.298Z,31.80
2018-12-19T17:14:06.736Z,33.35
2018-12-19T17:16:34.185Z,32.37
2018-12-19T17:19:01.623Z,30.70
2018-12-19T17:21:29.031Z,31.47
2018-12-19T17:23:56.441Z,31.00
2018-12-19T17:26:23.866Z,29.43
2018-12-19T17:28:51.332Z,29.60
2018-12-19T17:31:18.798Z,28.07
2018-12-19T17:33:46.220Z,28.95
2018-12-19T17:36:13.629Z,29.70
2018-12-19T17:38:41.028Z,29.45
2018-12-19T17:41:08.664Z,31.40
2018-12-19T17:43:36.064Z,30.27
2018-12-19T17:46:03.569Z,26.68
2018-12-19T17:48:31.008Z,31.67
2018-12-19T17:50:58.520Z,30.13
2018-12-19T17:53:26.712Z,31.10
2018-12-19T17:55:54.487Z,32.30
2018-12-19T17:58:21.885Z,33.75
2018-12-19T18:00:49.280Z,30.73
2018-12-19T18:03:16.701Z,30.93
2018-12-19T18:05:44.125Z,30.87
2018-12-19T18:08:11.530Z,31.63
2018-12-19T18:10:38.940Z,31.60
2018-12-19T18:13:06.563Z,30.40
2018-12-19T18:15:34.143Z,29.73
2018-12-19T18:18:01.696Z,31.52
2018-12-19T18:20:29.144Z,32.73
2018-12-19T18:22:56.548Z,31.00
2018-12-19T18:25:23.961Z,31.40
2018-12-19T18:27:51.360Z,30.60
2018-12-19T18:30:18.764Z,27.93
2018-12-19T18:32:46.180Z,30.43
2018-12-19T18:35:13.598Z,28.07
2018-12-19T18:37:41.002Z,29.87
2018-12-19T18:40:09.244Z,27.35
2018-12-19T18:42:36.666Z,28.20
2018-12-19T18:45:11.637Z,23.73
2018-12-19T18:47:34.553Z,23.80
2018-12-19T18:50:01.960Z,22.05
2018-12-19T18:52:29.373Z,18.65
2018-12-19T18:54:56.772Z,19.73
2018-12-19T18:57:24.225Z,21.40
2018-12-19T18:59:51.652Z,17.70
2018-12-19T19:02:19.175Z,20.15
2018-12-19T19:04:46.695Z,21.62
2018-12-19T19:07:14.235Z,18.60
2018-12-19T19:09:41.737Z,20.85
2018-12-19T19:12:09.136Z,20.15
2018-12-19T19:14:36.554Z,21.57
2018-12-19T19:17:03.956Z,19.87
2018-12-19T19:19:31.408Z,18.85
2018-12-19T19:21:58.824Z,19.42
2018-12-19T19:24:26.273Z,18.85
2018-12-19T19:26:53.773Z,18.90
2018-12-19T19:29:21.181Z,17.95
2018-12-19T19:31:48.588Z,17.70
2018-12-19T19:34:16.058Z,18.00
2018-12-19T19:36:43.461Z,18.57
2018-12-19T19:39:10.855Z,18.37
2018-12-19T19:41:38.280Z,17.90
2018-12-19T19:44:05.688Z,16.97
2018-12-19T19:46:33.181Z,16.32
2018-12-19T19:49:00.636Z,16.13
2018-12-19T19:51:29.181Z,16.67
2018-12-19T19:53:56.638Z,15.55
2018-12-19T19:56:24.032Z,16.55
2018-12-19T19:58:51.436Z,15.25
2018-12-19T20:01:18.949Z,15.73
2018-12-19T20:03:46.447Z,14.63
2018-12-19T20:06:13.849Z,13.83
2018-12-19T20:08:41.256Z,14.65
2018-12-19T20:11:08.678Z,12.95
2018-12-19T20:13:36.128Z,8.18
2018-12-19T20:16:03.532Z,8.25
2018-12-19T20:18:30.940Z,7.53
2018-12-19T20:20:58.343Z,6.67
2018-12-19T20:23:25.786Z,7.13
2018-12-19T20:25:53.276Z,6.70
2018-12-19T20:28:20.666Z,6.50
2018-12-19T20:30:48.061Z,6.20
2018-12-19T20:33:15.467Z,6.40
2018-12-19T20:35:42.852Z,6.40
2018-12-19T20:38:10.354Z,6.37
2018-12-19T20:40:37.795Z,6.10
2018-12-19T20:43:06.789Z,6.53
2018-12-19T20:45:34.465Z,5.70
2018-12-19T20:48:01.874Z,6.47
2018-12-19T20:50:29.260Z,6.07
2018-12-19T20:52:56.660Z,6.30
2018-12-19T20:55:24.061Z,6.33
2018-12-19T20:57:51.468Z,6.13
2018-12-19T21:00:18.981Z,6.37
2018-12-19T21:02:46.549Z,6.13
2018-12-19T21:05:13.994Z,6.67
2018-12-19T21:07:41.437Z,7.17
2018-12-19T21:10:08.895Z,7.03
2018-12-19T21:12:36.292Z,7.20
2018-12-19T21:15:04.815Z,6.97
2018-12-19T21:17:37.692Z,7.08
2018-12-19T21:20:06.315Z,7.28
2018-12-19T21:22:33.721Z,6.80
2018-12-19T21:25:01.118Z,7.12
2018-12-19T21:27:28.609Z,8.28
2018-12-19T21:29:55.980Z,7.75
2018-12-19T21:32:23.376Z,7.12
2018-12-19T21:34:50.797Z,7.20
2018-12-19T21:37:18.197Z,8.05
2018-12-19T21:39:45.596Z,7.22
2018-12-19T21:42:13.031Z,6.80
2018-12-19T21:44:40.519Z,7.25
2018-12-19T21:47:07.910Z,7.30
2018-12-19T21:49:35.342Z,7.00
2018-12-19T21:52:02.801Z,7.17
2018-12-19T21:54:30.251Z,7.40
2018-12-19T21:56:57.709Z,8.20
2018-12-19T21:59:25.165Z,6.57
2018-12-19T22:01:52.617Z,6.35
2018-12-19T22:04:20.096Z,6.50
2018-12-19T22:06:47.548Z,7.00
2018-12-19T22:09:15.056Z,6.60
2018-12-19T22:11:42.561Z,6.60
2018-12-19T22:14:10.085Z,6.00
2018-12-19T22:16:43.017Z,5.58
2018-12-19T22:19:10.505Z,6.05
2018-12-19T22:21:38.035Z,5.97
2018-12-19T22:24:05.481Z,6.25
2018-12-19T22:26:32.879Z,6.25
2018-12-19T22:29:00.337Z,5.63
2018-12-19T22:31:27.857Z,6.62
2018-12-19T22:33:55.310Z,5.55
2018-12-19T22:36:22.805Z,6.25
2018-12-19T22:38:50.222Z,5.90
2018-12-19T22:41:17.790Z,5.65
2018-12-19T22:43:45.230Z,6.33
2018-12-19T22:46:12.721Z,5.83
2018-12-19T22:48:40.120Z,6.37
2018-12-19T22:51:07.508Z,5.90
2018-12-19T22:53:35.008Z,5.47
2018-12-19T22:56:02.423Z,5.90
2018-12-19T22:58:30.000Z,5.92
2018-12-19T23:01:03.090Z,6.20
2018-12-19T23:03:36.241Z,5.30
2018-12-19T23:06:03.718Z,5.95
2018-12-19T23:08:31.357Z,5.90
2018-12-19T23:10:58.769Z,5.47
2018-12-19T23:13:26.260Z,5.50
2018-12-19T23:15:53.810Z,4.80
2018-12-19T23:18:27.270Z,5.25
2018-12-19T23:20:55.227Z,6.22
2018-12-19T23:23:22.663Z,5.15
2018-12-19T23:25:50.288Z,6.05
2018-12-19T23:28:17.679Z,5.78
2018-12-19T23:30:45.080Z,6.50
2018-12-19T23:33:12.656Z,6.40
2018-12-19T23:35:40.184Z,7.05
2018-12-19T23:38:07.638Z,6.25
2018-12-19T23:40:35.107Z,5.85
2018-12-19T23:43:02.616Z,5.50
2018-12-19T23:45:30.120Z,5.65
2018-12-19T23:47:57.564Z,6.10
2018-12-19T23:50:25.012Z,5.83
2018-12-19T23:52:52.484Z,6.03
2018-12-19T23:55:19.955Z,6.40
2018-12-19T23:57:47.529Z,6.07
